sensor_id;sensor_type;location;lat;lon;timestamp;P1;durP1;ratioP1;P2;durP2;ratioP2
2023;SDS011;1016;48.770;9.154;2023-04-25T00:00:15;18.30;;;1.90;;
2023;SDS011;1016;48.770;9.154;2023-04-25T00:02:41;17.88;;;1.90;;
2023;SDS011;1016;48.770;9.154;2023-04-25T00:05:07;18.20;;;2.20;;
2023;SDS011;1016;48.770;9.154;2023-04-25T00:07:33;18.10;;;2.00;;
2023;SDS011;1016;48.770;9.154;2023-04-25T00:09:59;18.67;;;2.10;;
2023;SDS011;1016;48.770;9.154;2023-04-25T00:12:25;18.33;;;2.10;;
2023;SDS011;1016;48.770;9.154;2023-04-25T00:14:53;18.40;;;2.30;;
2023;SDS011;1016;48.770;9.154;2023-04-25T00:17:21;18.27;;;2.10;;
2023;SDS011;1016;48.770;9.154;2023-04-25T00:19:49;18.10;;;1.95;;
2023;SDS011;1016;48.770;9.154;2023-04-25T00:22:15;18.58;;;2.10;;
2023;SDS011;1016;48.770;9.154;2023-04-25T00:24:41;18.40;;;1.80;;
2023;SDS011;1016;48.770;9.154;2023-04-25T00:27:06;18.00;;;2.00;;
2023;SDS011;1016;48.770;9.154;2023-04-25T00:29:33;18.10;;;2.00;;
2023;SDS011;1016;48.770;9.154;2023-04-25T00:31:59;17.90;;;1.70;;
2023;SDS011;1016;48.770;9.154;2023-04-25T00:34:24;18.57;;;1.93;;
2023;SDS011;1016;48.770;9.154;2023-04-25T00:36:50;18.73;;;1.80;;
2023;SDS011;1016;48.770;9.154;2023-04-25T00:39:15;18.10;;;1.90;;
2023;SDS011;1016;48.770;9.154;2023-04-25T00:41:41;18.40;;;2.00;;
2023;SDS011;1016;48.770;9.154;2023-04-25T00:44:08;18.10;;;1.95;;
2023;SDS011;1016;48.770;9.154;2023-04-25T00:46:36;18.37;;;1.90;;
2023;SDS011;1016;48.770;9.154;2023-04-25T00:49:02;17.92;;;1.90;;
2023;SDS011;1016;48.770;9.154;2023-04-25T00:51:28;18.05;;;1.80;;
2023;SDS011;1016;48.770;9.154;2023-04-25T00:53:55;18.30;;;1.83;;
2023;SDS011;1016;48.770;9.154;2023-04-25T00:56:21;18.20;;;1.97;;
2023;SDS011;1016;48.770;9.154;2023-04-25T00:58:47;18.40;;;1.70;;
2023;SDS011;1016;48.770;9.154;2023-04-25T01:01:13;18.35;;;1.88;;
2023;SDS011;1016;48.770;9.154;2023-04-25T01:03:39;18.20;;;1.90;;
2023;SDS011;1016;48.770;9.154;2023-04-25T01:06:07;18.85;;;2.20;;
2023;SDS011;1016;48.770;9.154;2023-04-25T01:08:34;18.77;;;2.17;;
2023;SDS011;1016;48.770;9.154;2023-04-25T01:10:59;17.80;;;2.00;;
2023;SDS011;1016;48.770;9.154;2023-04-25T01:13:24;18.92;;;2.28;;
2023;SDS011;1016;48.770;9.154;2023-04-25T01:15:50;18.20;;;2.10;;
2023;SDS011;1016;48.770;9.154;2023-04-25T01:18:15;18.25;;;2.40;;
2023;SDS011;1016;48.770;9.154;2023-04-25T01:20:41;19.43;;;2.40;;
2023;SDS011;1016;48.770;9.154;2023-04-25T01:23:07;19.02;;;2.40;;
2023;SDS011;1016;48.770;9.154;2023-04-25T01:25:33;18.00;;;2.10;;
2023;SDS011;1016;48.770;9.154;2023-04-25T01:27:58;19.35;;;2.28;;
2023;SDS011;1016;48.770;9.154;2023-04-25T01:30:28;18.20;;;2.20;;
2023;SDS011;1016;48.770;9.154;2023-04-25T01:32:55;18.92;;;2.40;;
2023;SDS011;1016;48.770;9.154;2023-04-25T01:35:21;18.13;;;2.10;;
2023;SDS011;1016;48.770;9.154;2023-04-25T01:37:49;19.60;;;2.60;;
2023;SDS011;1016;48.770;9.154;2023-04-25T01:40:15;18.20;;;2.28;;
2023;SDS011;1016;48.770;9.154;2023-04-25T01:42:43;18.50;;;2.10;;
2023;SDS011;1016;48.770;9.154;2023-04-25T01:45:10;18.80;;;2.35;;
2023;SDS011;1016;48.770;9.154;2023-04-25T01:47:36;20.25;;;2.30;;
2023;SDS011;1016;48.770;9.154;2023-04-25T01:50:02;19.30;;;2.15;;
2023;SDS011;1016;48.770;9.154;2023-04-25T01:52:29;19.40;;;2.40;;
2023;SDS011;1016;48.770;9.154;2023-04-25T01:54:55;19.10;;;2.28;;
2023;SDS011;1016;48.770;9.154;2023-04-25T01:57:22;18.20;;;2.30;;
2023;SDS011;1016;48.770;9.154;2023-04-25T01:59:48;18.80;;;2.30;;
2023;SDS011;1016;48.770;9.154;2023-04-25T02:02:14;18.30;;;2.30;;
2023;SDS011;1016;48.770;9.154;2023-04-25T02:04:39;21.00;;;2.45;;
2023;SDS011;1016;48.770;9.154;2023-04-25T02:07:05;18.40;;;2.20;;
2023;SDS011;1016;48.770;9.154;2023-04-25T02:09:30;17.70;;;2.00;;
2023;SDS011;1016;48.770;9.154;2023-04-25T02:11:56;18.50;;;2.30;;
2023;SDS011;1016;48.770;9.154;2023-04-25T02:14:21;18.02;;;2.30;;
2023;SDS011;1016;48.770;9.154;2023-04-25T02:16:47;18.57;;;2.30;;
2023;SDS011;1016;48.770;9.154;2023-04-25T02:19:12;18.80;;;2.40;;
2023;SDS011;1016;48.770;9.154;2023-04-25T02:21:38;18.20;;;2.30;;
2023;SDS011;1016;48.770;9.154;2023-04-25T02:24:03;18.40;;;2.40;;
2023;SDS011;1016;48.770;9.154;2023-04-25T02:26:29;19.83;;;2.53;;
2023;SDS011;1016;48.770;9.154;2023-04-25T02:28:56;18.10;;;2.45;;
2023;SDS011;1016;48.770;9.154;2023-04-25T02:31:22;19.25;;;2.70;;
2023;SDS011;1016;48.770;9.154;2023-04-25T02:33:47;18.70;;;2.33;;
2023;SDS011;1016;48.770;9.154;2023-04-25T02:36:13;18.80;;;2.50;;
2023;SDS011;1016;48.770;9.154;2023-04-25T02:38:38;18.90;;;2.50;;
2023;SDS011;1016;48.770;9.154;2023-04-25T02:41:04;18.75;;;2.50;;
2023;SDS011;1016;48.770;9.154;2023-04-25T02:43:30;17.90;;;2.10;;
2023;SDS011;1016;48.770;9.154;2023-04-25T02:45:55;18.73;;;2.50;;
2023;SDS011;1016;48.770;9.154;2023-04-25T02:48:21;18.20;;;2.20;;
2023;SDS011;1016;48.770;9.154;2023-04-25T02:50:46;18.80;;;2.50;;
2023;SDS011;1016;48.770;9.154;2023-04-25T02:53:12;18.98;;;2.30;;
2023;SDS011;1016;48.770;9.154;2023-04-25T02:55:37;18.10;;;2.20;;
2023;SDS011;1016;48.770;9.154;2023-04-25T02:58:04;18.58;;;2.30;;
2023;SDS011;1016;48.770;9.154;2023-04-25T03:00:29;18.60;;;2.20;;
2023;SDS011;1016;48.770;9.154;2023-04-25T03:02:55;18.90;;;2.00;;
2023;SDS011;1016;48.770;9.154;2023-04-25T03:05:20;18.20;;;2.30;;
2023;SDS011;1016;48.770;9.154;2023-04-25T03:07:46;17.98;;;1.80;;
2023;SDS011;1016;48.770;9.154;2023-04-25T03:10:12;17.77;;;2.03;;
2023;SDS011;1016;48.770;9.154;2023-04-25T03:12:37;18.80;;;2.10;;
2023;SDS011;1016;48.770;9.154;2023-04-25T03:15:03;18.30;;;2.20;;
2023;SDS011;1016;48.770;9.154;2023-04-25T03:17:29;19.95;;;2.10;;
2023;SDS011;1016;48.770;9.154;2023-04-25T03:19:55;18.40;;;2.30;;
2023;SDS011;1016;48.770;9.154;2023-04-25T03:22:22;18.10;;;2.20;;
2023;SDS011;1016;48.770;9.154;2023-04-25T03:24:48;18.90;;;2.20;;
2023;SDS011;1016;48.770;9.154;2023-04-25T03:27:14;18.90;;;2.30;;
2023;SDS011;1016;48.770;9.154;2023-04-25T03:29:40;18.30;;;2.30;;
2023;SDS011;1016;48.770;9.154;2023-04-25T03:32:05;18.80;;;2.10;;
2023;SDS011;1016;48.770;9.154;2023-04-25T03:34:31;19.30;;;2.40;;
2023;SDS011;1016;48.770;9.154;2023-04-25T03:36:56;19.50;;;2.50;;
2023;SDS011;1016;48.770;9.154;2023-04-25T03:39:22;19.20;;;2.40;;
2023;SDS011;1016;48.770;9.154;2023-04-25T03:41:47;18.40;;;2.30;;
2023;SDS011;1016;48.770;9.154;2023-04-25T03:44:13;18.30;;;2.00;;
2023;SDS011;1016;48.770;9.154;2023-04-25T03:46:39;17.58;;;2.28;;
2023;SDS011;1016;48.770;9.154;2023-04-25T03:49:04;17.77;;;2.10;;
2023;SDS011;1016;48.770;9.154;2023-04-25T03:51:30;18.80;;;2.60;;
2023;SDS011;1016;48.770;9.154;2023-04-25T03:53:56;18.20;;;2.30;;
2023;SDS011;1016;48.770;9.154;2023-04-25T03:56:21;18.00;;;2.10;;
2023;SDS011;1016;48.770;9.154;2023-04-25T03:58:47;18.33;;;2.20;;
2023;SDS011;1016;48.770;9.154;2023-04-25T04:01:12;18.30;;;2.40;;
2023;SDS011;1016;48.770;9.154;2023-04-25T04:03:38;18.38;;;2.30;;
2023;SDS011;1016;48.770;9.154;2023-04-25T04:06:03;18.60;;;2.50;;
2023;SDS011;1016;48.770;9.154;2023-04-25T04:08:30;18.60;;;2.30;;
2023;SDS011;1016;48.770;9.154;2023-04-25T04:10:57;18.83;;;2.40;;
2023;SDS011;1016;48.770;9.154;2023-04-25T04:13:23;19.40;;;2.40;;
2023;SDS011;1016;48.770;9.154;2023-04-25T04:15:48;19.57;;;2.50;;
2023;SDS011;1016;48.770;9.154;2023-04-25T04:18:14;18.83;;;2.80;;
2023;SDS011;1016;48.770;9.154;2023-04-25T04:20:40;18.80;;;2.50;;
2023;SDS011;1016;48.770;9.154;2023-04-25T04:23:05;18.88;;;2.50;;
2023;SDS011;1016;48.770;9.154;2023-04-25T04:25:31;19.17;;;2.50;;
2023;SDS011;1016;48.770;9.154;2023-04-25T04:27:56;19.17;;;2.60;;
2023;SDS011;1016;48.770;9.154;2023-04-25T04:30:22;20.33;;;3.00;;
2023;SDS011;1016;48.770;9.154;2023-04-25T04:32:54;19.20;;;2.80;;
2023;SDS011;1016;48.770;9.154;2023-04-25T04:35:21;18.35;;;2.88;;
2023;SDS011;1016;48.770;9.154;2023-04-25T04:37:47;19.50;;;2.70;;
2023;SDS011;1016;48.770;9.154;2023-04-25T04:40:13;19.50;;;2.83;;
2023;SDS011;1016;48.770;9.154;2023-04-25T04:42:40;18.73;;;2.80;;
2023;SDS011;1016;48.770;9.154;2023-04-25T04:45:06;19.10;;;2.65;;
2023;SDS011;1016;48.770;9.154;2023-04-25T04:47:33;19.25;;;3.10;;
2023;SDS011;1016;48.770;9.154;2023-04-25T04:49:58;19.50;;;2.70;;
2023;SDS011;1016;48.770;9.154;2023-04-25T04:52:24;19.33;;;3.10;;
2023;SDS011;1016;48.770;9.154;2023-04-25T04:54:50;18.60;;;2.80;;
2023;SDS011;1016;48.770;9.154;2023-04-25T04:57:15;18.70;;;2.60;;
2023;SDS011;1016;48.770;9.154;2023-04-25T04:59:41;19.30;;;2.90;;
2023;SDS011;1016;48.770;9.154;2023-04-25T05:02:07;19.70;;;3.30;;
2023;SDS011;1016;48.770;9.154;2023-04-25T05:04:32;19.02;;;3.00;;
2023;SDS011;1016;48.770;9.154;2023-04-25T05:06:58;19.90;;;2.83;;
2023;SDS011;1016;48.770;9.154;2023-04-25T05:09:23;19.05;;;3.15;;
2023;SDS011;1016;48.770;9.154;2023-04-25T05:11:52;19.30;;;3.00;;
2023;SDS011;1016;48.770;9.154;2023-04-25T05:14:17;18.70;;;2.80;;
2023;SDS011;1016;48.770;9.154;2023-04-25T05:16:43;18.90;;;3.10;;
2023;SDS011;1016;48.770;9.154;2023-04-25T05:19:08;19.80;;;2.90;;
2023;SDS011;1016;48.770;9.154;2023-04-25T05:21:34;20.03;;;3.10;;
2023;SDS011;1016;48.770;9.154;2023-04-25T05:24:00;18.73;;;3.40;;
2023;SDS011;1016;48.770;9.154;2023-04-25T05:26:26;19.20;;;3.30;;
2023;SDS011;1016;48.770;9.154;2023-04-25T05:28:55;19.57;;;3.20;;
2023;SDS011;1016;48.770;9.154;2023-04-25T05:31:24;19.43;;;3.10;;
2023;SDS011;1016;48.770;9.154;2023-04-25T05:33:50;19.40;;;3.22;;
2023;SDS011;1016;48.770;9.154;2023-04-25T05:36:15;19.50;;;3.23;;
2023;SDS011;1016;48.770;9.154;2023-04-25T05:38:41;19.17;;;3.20;;
2023;SDS011;1016;48.770;9.154;2023-04-25T05:41:07;20.88;;;3.50;;
2023;SDS011;1016;48.770;9.154;2023-04-25T05:43:32;19.43;;;3.40;;
2023;SDS011;1016;48.770;9.154;2023-04-25T05:45:58;18.92;;;3.30;;
2023;SDS011;1016;48.770;9.154;2023-04-25T05:48:23;18.70;;;2.80;;
2023;SDS011;1016;48.770;9.154;2023-04-25T05:50:49;19.30;;;3.03;;
2023;SDS011;1016;48.770;9.154;2023-04-25T05:53:16;19.20;;;3.10;;
2023;SDS011;1016;48.770;9.154;2023-04-25T05:55:42;19.00;;;3.00;;
2023;SDS011;1016;48.770;9.154;2023-04-25T05:58:07;18.80;;;3.00;;
2023;SDS011;1016;48.770;9.154;2023-04-25T06:00:33;18.93;;;2.90;;
2023;SDS011;1016;48.770;9.154;2023-04-25T06:02:58;19.23;;;3.00;;
2023;SDS011;1016;48.770;9.154;2023-04-25T06:05:24;19.23;;;2.90;;
2023;SDS011;1016;48.770;9.154;2023-04-25T06:07:50;19.30;;;2.80;;
2023;SDS011;1016;48.770;9.154;2023-04-25T06:10:15;18.23;;;2.60;;
2023;SDS011;1016;48.770;9.154;2023-04-25T06:12:41;19.50;;;2.70;;
2023;SDS011;1016;48.770;9.154;2023-04-25T06:15:06;18.70;;;2.87;;
2023;SDS011;1016;48.770;9.154;2023-04-25T06:17:32;18.90;;;2.72;;
2023;SDS011;1016;48.770;9.154;2023-04-25T06:19:58;19.30;;;2.72;;
2023;SDS011;1016;48.770;9.154;2023-04-25T06:22:24;19.08;;;2.85;;
2023;SDS011;1016;48.770;9.154;2023-04-25T06:24:49;18.37;;;3.00;;
2023;SDS011;1016;48.770;9.154;2023-04-25T06:27:15;18.63;;;2.92;;
2023;SDS011;1016;48.770;9.154;2023-04-25T06:29:40;18.70;;;3.10;;
2023;SDS011;1016;48.770;9.154;2023-04-25T06:32:06;19.15;;;2.80;;
2023;SDS011;1016;48.770;9.154;2023-04-25T06:34:31;18.80;;;3.20;;
2023;SDS011;1016;48.770;9.154;2023-04-25T06:36:57;18.60;;;3.20;;
2023;SDS011;1016;48.770;9.154;2023-04-25T06:39:22;18.50;;;3.30;;
2023;SDS011;1016;48.770;9.154;2023-04-25T06:41:49;18.55;;;3.10;;
2023;SDS011;1016;48.770;9.154;2023-04-25T06:44:15;18.20;;;3.20;;
2023;SDS011;1016;48.770;9.154;2023-04-25T06:46:40;18.30;;;3.60;;
2023;SDS011;1016;48.770;9.154;2023-04-25T06:49:06;19.10;;;3.80;;
2023;SDS011;1016;48.770;9.154;2023-04-25T06:51:31;18.63;;;3.50;;
2023;SDS011;1016;48.770;9.154;2023-04-25T06:53:57;19.63;;;3.67;;
2023;SDS011;1016;48.770;9.154;2023-04-25T06:56:22;18.57;;;3.80;;
2023;SDS011;1016;48.770;9.154;2023-04-25T06:58:48;18.38;;;3.20;;
2023;SDS011;1016;48.770;9.154;2023-04-25T07:01:14;19.90;;;3.70;;
2023;SDS011;1016;48.770;9.154;2023-04-25T07:03:39;18.40;;;3.50;;
2023;SDS011;1016;48.770;9.154;2023-04-25T07:06:05;19.08;;;3.88;;
2023;SDS011;1016;48.770;9.154;2023-04-25T07:08:31;18.17;;;3.45;;
2023;SDS011;1016;48.770;9.154;2023-04-25T07:10:56;18.40;;;3.60;;
2023;SDS011;1016;48.770;9.154;2023-04-25T07:13:22;18.50;;;3.75;;
2023;SDS011;1016;48.770;9.154;2023-04-25T07:15:47;18.80;;;3.80;;
2023;SDS011;1016;48.770;9.154;2023-04-25T07:18:13;18.58;;;4.00;;
2023;SDS011;1016;48.770;9.154;2023-04-25T07:20:39;19.08;;;3.78;;
2023;SDS011;1016;48.770;9.154;2023-04-25T07:23:04;19.00;;;4.10;;
2023;SDS011;1016;48.770;9.154;2023-04-25T07:25:30;18.52;;;3.63;;
2023;SDS011;1016;48.770;9.154;2023-04-25T07:27:56;18.67;;;4.10;;
2023;SDS011;1016;48.770;9.154;2023-04-25T07:30:21;19.20;;;3.80;;
2023;SDS011;1016;48.770;9.154;2023-04-25T07:32:47;18.50;;;3.92;;
2023;SDS011;1016;48.770;9.154;2023-04-25T07:35:14;19.35;;;4.13;;
2023;SDS011;1016;48.770;9.154;2023-04-25T07:37:40;19.35;;;3.88;;
2023;SDS011;1016;48.770;9.154;2023-04-25T07:40:06;19.20;;;4.00;;
2023;SDS011;1016;48.770;9.154;2023-04-25T07:42:32;18.60;;;3.90;;
2023;SDS011;1016;48.770;9.154;2023-04-25T07:44:58;19.45;;;4.10;;
2023;SDS011;1016;48.770;9.154;2023-04-25T07:47:23;19.70;;;4.10;;
2023;SDS011;1016;48.770;9.154;2023-04-25T07:49:49;19.63;;;4.00;;
2023;SDS011;1016;48.770;9.154;2023-04-25T07:52:15;19.80;;;4.10;;
2023;SDS011;1016;48.770;9.154;2023-04-25T07:54:40;19.10;;;4.10;;
2023;SDS011;1016;48.770;9.154;2023-04-25T07:57:06;19.83;;;4.15;;
2023;SDS011;1016;48.770;9.154;2023-04-25T07:59:32;19.88;;;4.50;;
2023;SDS011;1016;48.770;9.154;2023-04-25T08:01:57;19.50;;;4.17;;
2023;SDS011;1016;48.770;9.154;2023-04-25T08:04:23;18.80;;;3.80;;
2023;SDS011;1016;48.770;9.154;2023-04-25T08:06:50;19.48;;;4.50;;
2023;SDS011;1016;48.770;9.154;2023-04-25T08:09:16;18.80;;;4.40;;
2023;SDS011;1016;48.770;9.154;2023-04-25T08:11:42;19.00;;;3.95;;
2023;SDS011;1016;48.770;9.154;2023-04-25T08:14:08;19.10;;;4.28;;
2023;SDS011;1016;48.770;9.154;2023-04-25T08:16:33;19.43;;;4.50;;
2023;SDS011;1016;48.770;9.154;2023-04-25T08:18:59;19.48;;;4.53;;
2023;SDS011;1016;48.770;9.154;2023-04-25T08:21:25;19.00;;;4.30;;
2023;SDS011;1016;48.770;9.154;2023-04-25T08:23:52;19.98;;;4.60;;
2023;SDS011;1016;48.770;9.154;2023-04-25T08:26:17;19.20;;;4.60;;
2023;SDS011;1016;48.770;9.154;2023-04-25T08:28:43;19.53;;;4.70;;
2023;SDS011;1016;48.770;9.154;2023-04-25T08:31:09;19.67;;;4.70;;
2023;SDS011;1016;48.770;9.154;2023-04-25T08:33:35;20.30;;;4.60;;
2023;SDS011;1016;48.770;9.154;2023-04-25T08:36:00;18.70;;;4.10;;
2023;SDS011;1016;48.770;9.154;2023-04-25T08:38:26;18.87;;;4.30;;
2023;SDS011;1016;48.770;9.154;2023-04-25T08:40:51;19.33;;;4.65;;
2023;SDS011;1016;48.770;9.154;2023-04-25T08:43:19;19.63;;;4.80;;
2023;SDS011;1016;48.770;9.154;2023-04-25T08:45:45;20.40;;;4.65;;
2023;SDS011;1016;48.770;9.154;2023-04-25T08:48:12;18.50;;;4.50;;
2023;SDS011;1016;48.770;9.154;2023-04-25T08:50:51;19.73;;;4.87;;
2023;SDS011;1016;48.770;9.154;2023-04-25T08:53:22;20.63;;;5.00;;
2023;SDS011;1016;48.770;9.154;2023-04-25T08:55:50;20.90;;;4.90;;
2023;SDS011;1016;48.770;9.154;2023-04-25T08:58:18;21.08;;;4.70;;
2023;SDS011;1016;48.770;9.154;2023-04-25T09:00:45;20.25;;;4.50;;
2023;SDS011;1016;48.770;9.154;2023-04-25T09:03:12;19.80;;;4.93;;
2023;SDS011;1016;48.770;9.154;2023-04-25T09:05:38;19.75;;;4.90;;
2023;SDS011;1016;48.770;9.154;2023-04-25T09:08:05;20.02;;;4.90;;
2023;SDS011;1016;48.770;9.154;2023-04-25T09:10:31;18.88;;;4.70;;
2023;SDS011;1016;48.770;9.154;2023-04-25T09:15:29;21.17;;;4.80;;
2023;SDS011;1016;48.770;9.154;2023-04-25T09:17:56;18.30;;;4.40;;
2023;SDS011;1016;48.770;9.154;2023-04-25T09:20:22;20.55;;;5.40;;
2023;SDS011;1016;48.770;9.154;2023-04-25T09:22:47;21.00;;;5.00;;
2023;SDS011;1016;48.770;9.154;2023-04-25T09:25:13;20.57;;;4.97;;
2023;SDS011;1016;48.770;9.154;2023-04-25T09:27:52;20.00;;;5.03;;
2023;SDS011;1016;48.770;9.154;2023-04-25T09:30:19;19.58;;;4.80;;
2023;SDS011;1016;48.770;9.154;2023-04-25T09:32:57;19.25;;;4.57;;
2023;SDS011;1016;48.770;9.154;2023-04-25T09:35:28;18.90;;;4.40;;
2023;SDS011;1016;48.770;9.154;2023-04-25T09:37:53;18.67;;;4.47;;
2023;SDS011;1016;48.770;9.154;2023-04-25T09:40:21;20.20;;;4.20;;
2023;SDS011;1016;48.770;9.154;2023-04-25T09:42:46;19.90;;;4.20;;
2023;SDS011;1016;48.770;9.154;2023-04-25T09:45:12;19.07;;;4.20;;
2023;SDS011;1016;48.770;9.154;2023-04-25T09:47:40;19.33;;;4.25;;
2023;SDS011;1016;48.770;9.154;2023-04-25T09:50:13;20.73;;;4.25;;
2023;SDS011;1016;48.770;9.154;2023-04-25T09:52:40;19.40;;;3.80;;
2023;SDS011;1016;48.770;9.154;2023-04-25T09:55:06;18.30;;;4.00;;
2023;SDS011;1016;48.770;9.154;2023-04-25T09:57:32;18.67;;;3.83;;
2023;SDS011;1016;48.770;9.154;2023-04-25T09:59:58;18.80;;;4.00;;
2023;SDS011;1016;48.770;9.154;2023-04-25T10:02:26;18.80;;;3.80;;
2023;SDS011;1016;48.770;9.154;2023-04-25T10:04:55;18.65;;;3.30;;
2023;SDS011;1016;48.770;9.154;2023-04-25T10:07:25;17.73;;;2.80;;
2023;SDS011;1016;48.770;9.154;2023-04-25T10:10:02;18.27;;;2.50;;
2023;SDS011;1016;48.770;9.154;2023-04-25T10:12:29;18.17;;;2.70;;
2023;SDS011;1016;48.770;9.154;2023-04-25T10:14:59;17.33;;;2.13;;
2023;SDS011;1016;48.770;9.154;2023-04-25T10:17:25;17.10;;;2.10;;
2023;SDS011;1016;48.770;9.154;2023-04-25T10:19:52;17.00;;;2.10;;
2023;SDS011;1016;48.770;9.154;2023-04-25T10:22:36;16.80;;;2.00;;
2023;SDS011;1016;48.770;9.154;2023-04-25T10:25:04;16.70;;;1.97;;
2023;SDS011;1016;48.770;9.154;2023-04-25T10:27:31;16.70;;;1.73;;
2023;SDS011;1016;48.770;9.154;2023-04-25T10:30:00;17.40;;;1.70;;
2023;SDS011;1016;48.770;9.154;2023-04-25T10:32:37;17.20;;;1.80;;
2023;SDS011;1016;48.770;9.154;2023-04-25T10:35:16;17.40;;;1.70;;
2023;SDS011;1016;48.770;9.154;2023-04-25T10:40:33;17.10;;;1.52;;
2023;SDS011;1016;48.770;9.154;2023-04-25T10:45:56;17.30;;;1.60;;
2023;SDS011;1016;48.770;9.154;2023-04-25T10:48:24;16.50;;;1.33;;
2023;SDS011;1016;48.770;9.154;2023-04-25T10:50:53;16.90;;;1.60;;
2023;SDS011;1016;48.770;9.154;2023-04-25T10:53:35;16.60;;;1.83;;
2023;SDS011;1016;48.770;9.154;2023-04-25T10:56:09;17.02;;;2.30;;
2023;SDS011;1016;48.770;9.154;2023-04-25T10:58:44;17.02;;;2.58;;
2023;SDS011;1016;48.770;9.154;2023-04-25T11:01:10;17.90;;;3.40;;
2023;SDS011;1016;48.770;9.154;2023-04-25T11:03:39;18.10;;;3.42;;
2023;SDS011;1016;48.770;9.154;2023-04-25T11:06:07;18.40;;;3.70;;
2023;SDS011;1016;48.770;9.154;2023-04-25T11:08:50;18.05;;;3.40;;
2023;SDS011;1016;48.770;9.154;2023-04-25T11:11:16;17.77;;;3.15;;
2023;SDS011;1016;48.770;9.154;2023-04-25T11:13:43;17.92;;;3.10;;
2023;SDS011;1016;48.770;9.154;2023-04-25T11:16:08;18.47;;;3.20;;
2023;SDS011;1016;48.770;9.154;2023-04-25T11:18:34;18.40;;;3.50;;
2023;SDS011;1016;48.770;9.154;2023-04-25T11:21:00;17.70;;;2.77;;
2023;SDS011;1016;48.770;9.154;2023-04-25T11:23:27;17.75;;;3.30;;
2023;SDS011;1016;48.770;9.154;2023-04-25T11:25:54;17.80;;;3.20;;
2023;SDS011;1016;48.770;9.154;2023-04-25T11:28:20;19.37;;;3.83;;
2023;SDS011;1016;48.770;9.154;2023-04-25T11:30:48;17.40;;;2.60;;
2023;SDS011;1016;48.770;9.154;2023-04-25T11:33:15;17.50;;;2.30;;
2023;SDS011;1016;48.770;9.154;2023-04-25T11:35:41;17.80;;;2.60;;
2023;SDS011;1016;48.770;9.154;2023-04-25T11:38:06;17.58;;;2.60;;
2023;SDS011;1016;48.770;9.154;2023-04-25T11:40:32;17.20;;;2.53;;
2023;SDS011;1016;48.770;9.154;2023-04-25T11:42:59;17.27;;;2.50;;
2023;SDS011;1016;48.770;9.154;2023-04-25T11:45:25;17.30;;;2.50;;
2023;SDS011;1016;48.770;9.154;2023-04-25T11:47:51;17.60;;;2.60;;
2023;SDS011;1016;48.770;9.154;2023-04-25T11:50:17;18.20;;;2.97;;
2023;SDS011;1016;48.770;9.154;2023-04-25T11:52:43;17.80;;;3.00;;
2023;SDS011;1016;48.770;9.154;2023-04-25T11:55:12;17.48;;;2.97;;
2023;SDS011;1016;48.770;9.154;2023-04-25T11:57:40;19.10;;;3.20;;
2023;SDS011;1016;48.770;9.154;2023-04-25T12:00:11;18.10;;;3.50;;
2023;SDS011;1016;48.770;9.154;2023-04-25T12:02:51;19.50;;;4.05;;
2023;SDS011;1016;48.770;9.154;2023-04-25T12:05:23;18.55;;;3.80;;
2023;SDS011;1016;48.770;9.154;2023-04-25T12:07:50;18.63;;;3.72;;
2023;SDS011;1016;48.770;9.154;2023-04-25T12:10:16;19.20;;;4.40;;
2023;SDS011;1016;48.770;9.154;2023-04-25T12:12:47;18.60;;;4.10;;
2023;SDS011;1016;48.770;9.154;2023-04-25T12:17:58;18.90;;;4.50;;
2023;SDS011;1016;48.770;9.154;2023-04-25T12:20:26;19.10;;;4.30;;
2023;SDS011;1016;48.770;9.154;2023-04-25T12:22:52;19.20;;;4.70;;
2023;SDS011;1016;48.770;9.154;2023-04-25T12:28:16;19.58;;;5.00;;
2023;SDS011;1016;48.770;9.154;2023-04-25T12:33:20;20.27;;;5.30;;
2023;SDS011;1016;48.770;9.154;2023-04-25T12:35:46;20.88;;;5.50;;
2023;SDS011;1016;48.770;9.154;2023-04-25T12:38:20;20.10;;;5.80;;
2023;SDS011;1016;48.770;9.154;2023-04-25T12:40:46;20.73;;;5.40;;
2023;SDS011;1016;48.770;9.154;2023-04-25T12:43:12;21.00;;;5.80;;
2023;SDS011;1016;48.770;9.154;2023-04-25T12:45:37;20.95;;;6.05;;
2023;SDS011;1016;48.770;9.154;2023-04-25T12:48:03;21.23;;;5.53;;
2023;SDS011;1016;48.770;9.154;2023-04-25T12:50:28;20.20;;;5.80;;
2023;SDS011;1016;48.770;9.154;2023-04-25T12:52:54;20.10;;;5.50;;
2023;SDS011;1016;48.770;9.154;2023-04-25T12:55:19;20.90;;;5.40;;
2023;SDS011;1016;48.770;9.154;2023-04-25T12:57:45;21.33;;;5.90;;
2023;SDS011;1016;48.770;9.154;2023-04-25T13:00:10;22.13;;;6.10;;
2023;SDS011;1016;48.770;9.154;2023-04-25T13:02:39;20.58;;;5.68;;
2023;SDS011;1016;48.770;9.154;2023-04-25T13:05:05;21.30;;;5.82;;
2023;SDS011;1016;48.770;9.154;2023-04-25T13:07:31;20.80;;;5.93;;
2023;SDS011;1016;48.770;9.154;2023-04-25T13:09:57;20.70;;;6.37;;
2023;SDS011;1016;48.770;9.154;2023-04-25T13:12:22;21.10;;;5.80;;
2023;SDS011;1016;48.770;9.154;2023-04-25T13:14:48;21.40;;;5.80;;
2023;SDS011;1016;48.770;9.154;2023-04-25T13:17:13;21.23;;;5.60;;
2023;SDS011;1016;48.770;9.154;2023-04-25T13:19:39;20.90;;;6.00;;
2023;SDS011;1016;48.770;9.154;2023-04-25T13:22:04;20.90;;;6.03;;
2023;SDS011;1016;48.770;9.154;2023-04-25T13:24:30;21.90;;;6.23;;
2023;SDS011;1016;48.770;9.154;2023-04-25T13:26:55;21.58;;;6.10;;
2023;SDS011;1016;48.770;9.154;2023-04-25T13:29:21;21.80;;;6.03;;
2023;SDS011;1016;48.770;9.154;2023-04-25T13:31:46;21.97;;;6.73;;
2023;SDS011;1016;48.770;9.154;2023-04-25T13:34:12;22.60;;;7.30;;
2023;SDS011;1016;48.770;9.154;2023-04-25T13:36:37;22.20;;;6.70;;
2023;SDS011;1016;48.770;9.154;2023-04-25T13:39:03;21.75;;;6.75;;
2023;SDS011;1016;48.770;9.154;2023-04-25T13:41:32;21.38;;;6.75;;
2023;SDS011;1016;48.770;9.154;2023-04-25T13:43:57;22.20;;;6.75;;
2023;SDS011;1016;48.770;9.154;2023-04-25T13:46:23;22.60;;;8.20;;
2023;SDS011;1016;48.770;9.154;2023-04-25T13:48:48;21.57;;;7.30;;
2023;SDS011;1016;48.770;9.154;2023-04-25T13:51:15;22.80;;;8.03;;
2023;SDS011;1016;48.770;9.154;2023-04-25T13:53:42;23.83;;;8.20;;
2023;SDS011;1016;48.770;9.154;2023-04-25T13:56:07;23.03;;;8.60;;
2023;SDS011;1016;48.770;9.154;2023-04-25T13:58:33;23.83;;;8.80;;
2023;SDS011;1016;48.770;9.154;2023-04-25T14:00:59;25.80;;;9.50;;
2023;SDS011;1016;48.770;9.154;2023-04-25T14:03:24;24.70;;;9.60;;
2023;SDS011;1016;48.770;9.154;2023-04-25T14:05:50;24.00;;;8.02;;
2023;SDS011;1016;48.770;9.154;2023-04-25T14:08:16;23.58;;;8.60;;
2023;SDS011;1016;48.770;9.154;2023-04-25T14:10:41;23.90;;;8.00;;
2023;SDS011;1016;48.770;9.154;2023-04-25T14:13:07;23.35;;;7.72;;
2023;SDS011;1016;48.770;9.154;2023-04-25T14:15:33;23.63;;;8.07;;
2023;SDS011;1016;48.770;9.154;2023-04-25T14:17:59;22.87;;;7.50;;
2023;SDS011;1016;48.770;9.154;2023-04-25T14:20:26;22.75;;;7.60;;
2023;SDS011;1016;48.770;9.154;2023-04-25T14:22:52;22.50;;;6.55;;
2023;SDS011;1016;48.770;9.154;2023-04-25T14:25:19;22.40;;;6.47;;
2023;SDS011;1016;48.770;9.154;2023-04-25T14:27:45;22.20;;;7.30;;
2023;SDS011;1016;48.770;9.154;2023-04-25T14:30:14;22.47;;;6.07;;
2023;SDS011;1016;48.770;9.154;2023-04-25T14:32:40;21.75;;;5.65;;
2023;SDS011;1016;48.770;9.154;2023-04-25T14:35:06;20.63;;;5.00;;
2023;SDS011;1016;48.770;9.154;2023-04-25T14:37:32;21.17;;;5.80;;
2023;SDS011;1016;48.770;9.154;2023-04-25T14:39:58;20.42;;;5.40;;
2023;SDS011;1016;48.770;9.154;2023-04-25T14:42:23;20.63;;;5.20;;
2023;SDS011;1016;48.770;9.154;2023-04-25T14:44:49;20.55;;;5.35;;
2023;SDS011;1016;48.770;9.154;2023-04-25T14:47:15;21.33;;;5.30;;
2023;SDS011;1016;48.770;9.154;2023-04-25T14:49:41;21.53;;;5.30;;
2023;SDS011;1016;48.770;9.154;2023-04-25T14:52:07;20.70;;;5.30;;
2023;SDS011;1016;48.770;9.154;2023-04-25T14:54:32;20.60;;;5.90;;
2023;SDS011;1016;48.770;9.154;2023-04-25T14:56:58;21.50;;;6.22;;
2023;SDS011;1016;48.770;9.154;2023-04-25T14:59:24;20.00;;;5.00;;
2023;SDS011;1016;48.770;9.154;2023-04-25T15:01:50;20.00;;;5.00;;
2023;SDS011;1016;48.770;9.154;2023-04-25T15:04:16;20.10;;;4.95;;
2023;SDS011;1016;48.770;9.154;2023-04-25T15:06:42;20.02;;;4.90;;
2023;SDS011;1016;48.770;9.154;2023-04-25T15:09:08;20.30;;;5.00;;
2023;SDS011;1016;48.770;9.154;2023-04-25T15:11:35;20.83;;;5.00;;